• Join FlightAware (Why Join?)
  • Login
  • US Flag 
10:45PM EDT


 

Airport Tracker/Info


-or-


 

Live Flight TrackerFlight Track Log ✈ ASH3788 ✈ 27-Jul-2013 ✈ KORD - KBTV

Flight Track Log - Related Links

Times and Time Zones

All times are in EDT time to prevent confusion due to time zone crossing. See the ASH3788 flight status page for this flight to view local times or setup timezone preferences in your user account.

Time Position Orientation Groundspeed Altitude Reporting Facility
EDT Latitude Longitude Course Direction KTS MPH feet Rate Location/Type
10:39PM 42.0000 -87.9333 86° East 164 189 1,900  Level Chicago TRACON
10:40PM 42.0500 -87.8833 37° Northeast 230 265 4,200 1,860 Climbing Chicago TRACON
10:40PM 42.0500 -87.8425 90° East 251 289 5,000 2,340 Climbing Chicago Center
10:41PM 42.1367 -87.4346 63° Northeast  Level FlightAware Approximate
10:41PM 42.0661 -87.7361 78° East 286 329 8,100  Level Chicago Center
10:42PM 42.1921 -87.2738 66° East  Level FlightAware Approximate
10:42PM 42.0825 -87.6264 79° East 297 342 10,600  Level Chicago Center
10:43PM 42.2460 -87.1120 66° East  Level FlightAware Approximate
10:43PM 42.1219 -87.5142 65° Northeast 328 377 12,200  Level Chicago Center
10:44PM 42.2696 -86.9405 86° East  Level FlightAware Approximate
10:44PM 42.1792 -87.3525 64° Northeast 401 461 13,400  Level Chicago Center
10:45PM 42.2289 -87.2078 65° Northeast 425 489 15,200 1,680 Climbing Chicago Center
10:46PM 42.2781 -87.0556 66° East 441 507 16,900 1,560 Climbing Chicago Center
10:47PM 42.2861 -86.8861 86° East 451 519 18,400 1,380 Climbing Chicago Center
10:48PM 42.2933 -86.7158 87° East 456 525 19,800 1,260 Climbing Chicago Center
10:49PM 42.2989 -86.5631 87° East 467 537 21,000 1,080 Climbing Chicago Center
10:50PM 42.3056 -86.3719 87° East 471 542 22,100 1,140 Climbing Chicago Center
10:51PM 42.3111 -86.1933 88° East 479 551 23,400 1,020 Climbing Chicago Center
10:52PM 42.3156 -86.0114 88° East 487 560 24,200 780 Climbing Chicago Center
10:54PM 42.3122 -85.8258 91° East 495 570 25,100 840 Climbing Chicago Center
10:55PM 42.3092 -85.6025 91° East 501 577 26,000 1,080 Climbing Chicago Center
10:56PM 42.3072 -85.4150 91° East 502 578 27,300 1,380 Climbing Chicago Center
10:57PM 42.3047 -85.2322 91° East 493 567 28,900 1,320 Climbing Chicago Center
10:58PM 42.3011 -85.0525 91° East 486 559 30,100 960 Climbing Chicago Center
10:59PM 42.2978 -84.8744 91° East 479 551 30,900 720 Climbing Chicago Center
11:00PM 42.2922 -84.6928 92° East 484 557 31,600 660 Climbing Chicago Center
11:01PM 42.2886 -84.5064 91° East 496 571 32,300 660 Climbing Chicago Center
11:01PM 42.3053 -84.3317 83° East 489 563 32,900 600 Climbing Cleveland Center
11:02PM 42.3322 -84.1392 79° East 504 580 33,500 600 Climbing Cleveland Center
11:03PM 42.3586 -83.9553 79° East 509 586 34,100 600 Climbing Cleveland Center
11:04PM 42.3850 -83.7656 79° East 509 586 34,700 420 Climbing Cleveland Center
11:05PM 42.4083 -83.5950 79° East 504 580 35,000 120 Climbing Cleveland Center
11:06PM 42.4136 -83.3817 88° East 504 580 35,000  Level Cleveland Center
11:07PM 42.4219 -83.2019 86° East 517 595 35,000  Level Cleveland Center
11:08PM 42.4283 -83.0081 87° East 517 595 35,000  Level Cleveland Center
11:09PM 42.4364 -82.8114 87° East 517 595 35,000  Level Cleveland Center
11:10PM 42.4400 -82.6231 88° East 512 589 35,000  Level Cleveland Center
11:11PM 42.4453 -82.4289 88° East 512 589 35,000  Level Cleveland Center
11:12PM 42.4503 -82.2350 88° East 512 589 35,000  Level Cleveland Center
11:13PM 42.4550 -82.0408 88° East 512 589 35,000  Level Cleveland Center
11:14PM 42.4594 -81.8469 88° East 512 589 35,000  Level Cleveland Center
11:15PM 42.4656 -81.6528 87° East 512 589 35,000  Level Cleveland Center
11:16PM 42.4714 -81.4614 88° East 512 589 35,000  Level Cleveland Center
11:17PM 42.4750 -81.2617 89° East 517 595 35,000  Level Cleveland Center
11:18PM 42.4781 -81.0672 89° East 518 596 35,000  Level Cleveland Center
11:19PM 42.4808 -80.8506 89° East 518 596 35,000  Level Cleveland Center
11:20PM 42.4831 -80.6564 89° East 518 596 35,000  Level Cleveland Center
11:21PM 42.4914 -80.4508 87° East 524 603 35,000  Level Cleveland Center
11:22PM 42.5244 -80.2536 77° East 529 609 35,000  Level Cleveland Center
11:23PM 42.5589 -80.0506 77° East 540 621 35,000  Level Cleveland Center
11:24PM 42.5975 -79.8528 75° East 540 621 35,000  Level Cleveland Center
11:25PM 42.6294 -79.6547 78° East 540 621 35,000  Level Cleveland Center
11:26PM 42.6653 -79.4567 76° East 540 621 35,000  Level Cleveland Center
11:27PM 42.6986 -79.2583 77° East 540 621 35,000  Level Cleveland Center
11:28PM 42.7294 -79.0625 78° East 540 621 35,000  Level Cleveland Center
11:29PM 42.7622 -78.8667 77° East 535 616 35,000  Level Cleveland Center
11:30PM 42.8111 -78.6728 71° East 528 608 35,000  Level Cleveland Center
11:31PM 42.8706 -78.4925 66° East 528 608 35,000  Level Cleveland Center
11:32PM 42.9339 -78.3033 65° Northeast 528 608 35,000  Level Cleveland Center
11:33PM 42.9808 -78.1539 67° East 533 613 35,000  Level Cleveland Center
11:34PM 43.0492 -77.9494 65° Northeast 528 608 35,000  Level Cleveland Center
11:35PM 43.1072 -77.7622 67° East 528 608 35,000  Level Cleveland Center
11:37PM 43.2292 -77.3825 66° East 535 616 35,000  Level Boston Center
11:38PM 43.2914 -77.1906 66° East 535 616 35,000  Level Boston Center
11:40PM 43.3514 -77.0008 66° East 541 623 35,000  Level Boston Center
11:41PM 43.4133 -76.8025 67° East 547 629 35,000  Level Boston Center
11:41PM 43.4817 -76.5928 66° East 547 629 35,000  Level Boston Center
11:42PM 43.5428 -76.3961 67° East 553 636 35,000  Level Boston Center
11:44PM 43.6036 -76.1994 67° East 553 636 35,000  Level Boston Center
11:44PM 43.6597 -76.0078 68° East 548 631 35,000  Level Boston Center
11:46PM 43.7200 -75.8131 67° East 548 631 35,000  Level Boston Center
11:46PM 43.7778 -75.6147 68° East 553 636 35,000  Level Boston Center
11:47PM 43.8283 -75.4392 68° East 548 631 35,000  Level Boston Center
11:49PM 43.8875 -75.2431 67° East 548 631 35,000  Level Boston Center
11:49PM 43.9422 -75.0439 69° East 548 631 35,000  Level Boston Center
11:51PM 43.9986 -74.8442 69° East 548 631 35,000 -300 Level Boston Center
11:51PM 44.0567 -74.6472 68° East 548 631 34,400 -1,980 Descending Boston Center
11:52PM 44.1103 -74.4583 68° East 538 619 31,200 -3,420 Descending Boston Center
11:53PM 44.1633 -74.2750 68° East 522 601 27,600 -6,540 Descending Boston Center
11:55PM 44.2161 -74.0883 68° East 498 573 18,000 -4,680 Descending Boston Center
11:55PM 44.2622 -73.9186 69° East 472 543 18,300 -2,040 Climbing Boston Center
11:56PM 44.3058 -73.7631 69° East 445 512 14,000 -2,820 Descending Boston Center
11:58PM 44.3428 -73.6303 69° East 385 443 12,600 -1,860 Descending Boston Center
11:59PM 44.3731 -73.5206 69° East 324 373 10,300 -1,620 Descending Boston Center
11:59PM 44.4258 -73.4372 48° Northeast 290 334 9,500 -1,140 Descending Boston Center
12:00AM 44.4786 -73.3622 45° Northeast 269 310 8,100 -1,380 Descending Boston Center
12:02AM 44.5328 -73.3486 10° North 201 231 6,800 -1,380 Descending Boston Center
12:02AM 44.5742 -73.3697 340° North 168 193 5,400 -1,500 Descending Boston Center
12:03AM 44.5706 -73.3142 95° East 108 124 3,900 -1,560 Descending Boston Center
12:04AM 44.5458 -73.2731 130° Southeast 117 135 2,300 -1,140 Descending Boston Center
12:06AM 44.5211 -73.2319 130° Southeast 132 152 1,600 -780 Descending Boston Center
12:07AM 44.4964 -73.1939 132° Southeast 137 158 800 -720 Descending Boston Center
12:07AM 44.4736 -73.1558 130° Southeast 137 158 300 -300 Descending Boston Center
12:08AM 44.4694 -73.1528 152° Southeast 79 91 300 1,560 Level Boston Center
12:18AM 44.4033 -73.0589 135° Southeast 79 91 18,000 1,440 Climbing Boston Center
12:20AM 44.4033 -73.0589 13° North 79 91 18,000  Level Boston Center
12:22AM 44.4033 -73.0589 13° North 79 91 18,000  Level Boston Center
12:24AM 44.4033 -73.0589 13° North 79 91 18,000  Level Boston Center
12:27AM 44.4033 -73.0589 13° North 79 91 18,000  Level Boston Center